sensor_id;sensor_type;location;lat;lon;timestamp;pressure;altitude;pressure_sealevel;temperature;humidity
21980;BME280;11154;48.558;9.234;2023-06-14T00:00:43;97001.72;;;18.10;53.52
21980;BME280;11154;48.558;9.234;2023-06-14T00:02:46;96998.56;;;18.20;51.93
21980;BME280;11154;48.558;9.234;2023-06-14T00:04:47;96998.56;;;18.20;52.33
21980;BME280;11154;48.558;9.234;2023-06-14T00:06:52;96996.44;;;18.22;52.66
21980;BME280;11154;48.558;9.234;2023-06-14T00:08:56;97001.00;;;18.21;52.26
21980;BME280;11154;48.558;9.234;2023-06-14T00:10:58;97008.63;;;18.24;53.18
21980;BME280;11154;48.558;9.234;2023-06-14T00:13:00;97005.19;;;18.17;53.10
21980;BME280;11154;48.558;9.234;2023-06-14T00:15:02;97004.03;;;18.07;54.39
21980;BME280;11154;48.558;9.234;2023-06-14T00:17:04;97001.09;;;18.08;54.04
21980;BME280;11154;48.558;9.234;2023-06-14T00:19:08;96988.84;;;18.12;54.69
21980;BME280;11154;48.558;9.234;2023-06-14T00:21:10;97002.91;;;18.14;54.28
21980;BME280;11154;48.558;9.234;2023-06-14T00:23:12;97000.06;;;18.09;54.52
21980;BME280;11154;48.558;9.234;2023-06-14T00:25:14;97003.41;;;18.05;54.74
21980;BME280;11154;48.558;9.234;2023-06-14T00:27:15;97003.38;;;18.11;54.53
21980;BME280;11154;48.558;9.234;2023-06-14T00:29:17;97001.72;;;18.10;54.64
21980;BME280;11154;48.558;9.234;2023-06-14T00:31:18;96993.03;;;18.08;54.78
21980;BME280;11154;48.558;9.234;2023-06-14T00:33:20;96993.47;;;18.06;55.62
21980;BME280;11154;48.558;9.234;2023-06-14T00:35:23;96992.25;;;18.02;55.13
21980;BME280;11154;48.558;9.234;2023-06-14T00:37:25;96992.09;;;17.97;54.72
21980;BME280;11154;48.558;9.234;2023-06-14T00:39:27;96996.22;;;17.99;54.66
21980;BME280;11154;48.558;9.234;2023-06-14T00:41:29;96993.94;;;17.96;55.73
21980;BME280;11154;48.558;9.234;2023-06-14T00:43:30;96991.94;;;17.92;54.65
21980;BME280;11154;48.558;9.234;2023-06-14T00:45:32;96983.25;;;17.90;52.57
21980;BME280;11154;48.558;9.234;2023-06-14T00:47:37;96993.78;;;17.91;52.18
21980;BME280;11154;48.558;9.234;2023-06-14T00:49:39;96991.09;;;17.91;52.19
21980;BME280;11154;48.558;9.234;2023-06-14T00:51:43;96991.34;;;17.90;51.96
21980;BME280;11154;48.558;9.234;2023-06-14T00:53:44;96994.03;;;17.90;51.69
21980;BME280;11154;48.558;9.234;2023-06-14T00:55:47;96996.09;;;17.88;52.02
21980;BME280;11154;48.558;9.234;2023-06-14T00:57:49;96989.13;;;17.80;53.05
21980;BME280;11154;48.558;9.234;2023-06-14T00:59:51;96990.25;;;17.73;53.33
21980;BME280;11154;48.558;9.234;2023-06-14T01:01:53;96995.81;;;17.71;53.27
21980;BME280;11154;48.558;9.234;2023-06-14T01:03:54;96991.69;;;17.69;53.24
21980;BME280;11154;48.558;9.234;2023-06-14T01:06:04;96995.00;;;17.71;53.07
21980;BME280;11154;48.558;9.234;2023-06-14T01:08:21;96987.41;;;17.61;55.52
21980;BME280;11154;48.558;9.234;2023-06-14T01:10:31;96987.03;;;17.58;55.54
21980;BME280;11154;48.558;9.234;2023-06-14T01:12:44;96992.00;;;17.54;56.13
21980;BME280;11154;48.558;9.234;2023-06-14T01:14:50;96986.69;;;17.48;56.97
21980;BME280;11154;48.558;9.234;2023-06-14T01:16:55;96994.56;;;17.43;56.43
21980;BME280;11154;48.558;9.234;2023-06-14T01:18:57;96994.41;;;17.38;56.36
21980;BME280;11154;48.558;9.234;2023-06-14T01:20:59;96996.66;;;17.41;56.26
21980;BME280;11154;48.558;9.234;2023-06-14T01:23:07;96992.56;;;17.32;57.00
21980;BME280;11154;48.558;9.234;2023-06-14T01:25:08;96998.38;;;17.29;56.86
21980;BME280;11154;48.558;9.234;2023-06-14T01:27:13;97002.31;;;17.27;56.67
21980;BME280;11154;48.558;9.234;2023-06-14T01:29:15;96997.34;;;17.24;55.90
21980;BME280;11154;48.558;9.234;2023-06-14T01:31:19;97002.94;;;17.22;55.71
21980;BME280;11154;48.558;9.234;2023-06-14T01:33:23;97007.25;;;17.23;54.83
21980;BME280;11154;48.558;9.234;2023-06-14T01:35:25;97008.91;;;17.24;54.66
21980;BME280;11154;48.558;9.234;2023-06-14T01:37:27;97000.84;;;17.24;55.31
21980;BME280;11154;48.558;9.234;2023-06-14T01:39:32;96995.47;;;17.24;55.07
21980;BME280;11154;48.558;9.234;2023-06-14T01:41:35;97003.53;;;17.24;55.78
21980;BME280;11154;48.558;9.234;2023-06-14T01:43:38;96998.22;;;17.18;56.88
21980;BME280;11154;48.558;9.234;2023-06-14T01:45:41;96998.22;;;17.11;57.74
21980;BME280;11154;48.558;9.234;2023-06-14T01:47:44;96999.50;;;17.09;58.26
21980;BME280;11154;48.558;9.234;2023-06-14T01:49:46;96994.50;;;17.12;58.65
21980;BME280;11154;48.558;9.234;2023-06-14T01:51:48;96995.53;;;17.11;59.86
21980;BME280;11154;48.558;9.234;2023-06-14T01:53:49;96992.84;;;17.11;59.75
21980;BME280;11154;48.558;9.234;2023-06-14T01:55:52;96988.75;;;17.09;59.82
21980;BME280;11154;48.558;9.234;2023-06-14T01:57:54;96995.81;;;17.03;60.10
21980;BME280;11154;48.558;9.234;2023-06-14T01:59:56;96993.13;;;17.03;59.93
21980;BME280;11154;48.558;9.234;2023-06-14T02:01:57;96993.75;;;16.99;61.99
21980;BME280;11154;48.558;9.234;2023-06-14T02:03:59;96998.13;;;16.93;61.50
21980;BME280;11154;48.558;9.234;2023-06-14T02:06:01;96992.56;;;16.88;61.82
21980;BME280;11154;48.558;9.234;2023-06-14T02:08:03;96999.59;;;16.89;61.86
21980;BME280;11154;48.558;9.234;2023-06-14T02:10:05;96997.53;;;16.85;62.55
21980;BME280;11154;48.558;9.234;2023-06-14T02:12:09;97008.06;;;16.86;61.83
21980;BME280;11154;48.558;9.234;2023-06-14T02:14:12;96997.94;;;16.88;61.38
21980;BME280;11154;48.558;9.234;2023-06-14T02:16:15;97007.44;;;16.91;60.69
21980;BME280;11154;48.558;9.234;2023-06-14T02:18:17;97000.63;;;16.88;60.99
21980;BME280;11154;48.558;9.234;2023-06-14T02:20:19;97002.09;;;16.78;61.74
21980;BME280;11154;48.558;9.234;2023-06-14T02:22:21;96995.31;;;16.75;62.49
21980;BME280;11154;48.558;9.234;2023-06-14T02:24:22;97001.09;;;16.72;62.51
21980;BME280;11154;48.558;9.234;2023-06-14T02:26:24;96999.06;;;16.68;63.12
21980;BME280;11154;48.558;9.234;2023-06-14T02:28:30;96993.28;;;16.64;64.13
21980;BME280;11154;48.558;9.234;2023-06-14T02:30:32;96997.22;;;16.62;63.96
21980;BME280;11154;48.558;9.234;2023-06-14T02:32:33;97002.78;;;16.61;64.35
21980;BME280;11154;48.558;9.234;2023-06-14T02:34:35;97008.78;;;16.56;64.65
21980;BME280;11154;48.558;9.234;2023-06-14T02:36:37;97007.16;;;16.55;63.74
21980;BME280;11154;48.558;9.234;2023-06-14T02:38:41;97005.72;;;16.53;63.93
21980;BME280;11154;48.558;9.234;2023-06-14T02:40:43;97002.19;;;16.52;64.38
21980;BME280;11154;48.558;9.234;2023-06-14T02:42:45;97004.69;;;16.47;64.81
21980;BME280;11154;48.558;9.234;2023-06-14T02:44:48;97008.19;;;16.48;64.20
21980;BME280;11154;48.558;9.234;2023-06-14T02:46:51;97007.16;;;16.49;63.42
21980;BME280;11154;48.558;9.234;2023-06-14T02:48:52;97006.53;;;16.47;63.53
21980;BME280;11154;48.558;9.234;2023-06-14T02:50:54;97011.31;;;16.45;63.62
21980;BME280;11154;48.558;9.234;2023-06-14T02:52:56;97004.28;;;16.44;63.39
21980;BME280;11154;48.558;9.234;2023-06-14T02:54:58;97006.97;;;16.44;62.54
21980;BME280;11154;48.558;9.234;2023-06-14T02:57:00;97011.50;;;16.43;62.73
21980;BME280;11154;48.558;9.234;2023-06-14T02:59:01;97012.34;;;16.44;62.82
21980;BME280;11154;48.558;9.234;2023-06-14T03:01:05;97013.16;;;16.44;62.22
21980;BME280;11154;48.558;9.234;2023-06-14T03:03:08;97017.25;;;16.47;61.73
21980;BME280;11154;48.558;9.234;2023-06-14T03:05:14;97019.34;;;16.45;61.81
21980;BME280;11154;48.558;9.234;2023-06-14T03:07:16;97017.69;;;16.44;62.16
21980;BME280;11154;48.558;9.234;2023-06-14T03:09:19;97019.53;;;16.43;61.61
21980;BME280;11154;48.558;9.234;2023-06-14T03:11:21;97017.25;;;16.47;61.42
21980;BME280;11154;48.558;9.234;2023-06-14T03:13:23;97002.63;;;16.43;61.86
21980;BME280;11154;48.558;9.234;2023-06-14T03:15:24;97008.22;;;16.35;62.81
21980;BME280;11154;48.558;9.234;2023-06-14T03:17:28;97016.06;;;16.30;62.47
21980;BME280;11154;48.558;9.234;2023-06-14T03:19:33;97018.75;;;16.30;62.25
21980;BME280;11154;48.558;9.234;2023-06-14T03:21:35;97019.16;;;16.27;62.89
21980;BME280;11154;48.558;9.234;2023-06-14T03:23:36;97022.88;;;16.26;62.69
21980;BME280;11154;48.558;9.234;2023-06-14T03:25:38;97024.34;;;16.28;61.48
21980;BME280;11154;48.558;9.234;2023-06-14T03:27:42;97020.59;;;16.23;61.79
21980;BME280;11154;48.558;9.234;2023-06-14T03:29:44;97031.34;;;16.16;62.80
21980;BME280;11154;48.558;9.234;2023-06-14T03:31:57;97034.84;;;16.17;62.03
21980;BME280;11154;48.558;9.234;2023-06-14T03:34:00;97035.44;;;16.12;62.83
21980;BME280;11154;48.558;9.234;2023-06-14T03:36:02;97044.16;;;16.08;62.71
21980;BME280;11154;48.558;9.234;2023-06-14T03:38:04;97038.38;;;16.04;62.45
21980;BME280;11154;48.558;9.234;2023-06-14T03:40:06;97046.59;;;16.03;63.65
21980;BME280;11154;48.558;9.234;2023-06-14T03:42:08;97034.63;;;15.99;64.63
21980;BME280;11154;48.558;9.234;2023-06-14T03:44:10;97041.03;;;15.98;65.62
21980;BME280;11154;48.558;9.234;2023-06-14T03:46:12;97034.44;;;15.94;65.83
21980;BME280;11154;48.558;9.234;2023-06-14T03:48:14;97037.72;;;15.96;64.35
21980;BME280;11154;48.558;9.234;2023-06-14T03:50:17;97038.34;;;15.98;64.18
21980;BME280;11154;48.558;9.234;2023-06-14T03:52:18;97038.56;;;15.96;65.54
21980;BME280;11154;48.558;9.234;2023-06-14T03:54:22;97044.16;;;15.95;65.76
21980;BME280;11154;48.558;9.234;2023-06-14T03:56:23;97046.19;;;15.93;65.29
21980;BME280;11154;48.558;9.234;2023-06-14T03:58:25;97056.50;;;15.96;65.64
21980;BME280;11154;48.558;9.234;2023-06-14T04:00:27;97054.22;;;15.99;65.20
21980;BME280;11154;48.558;9.234;2023-06-14T04:02:28;97055.28;;;15.98;64.97
21980;BME280;11154;48.558;9.234;2023-06-14T04:04:30;97052.38;;;16.00;64.84
21980;BME280;11154;48.558;9.234;2023-06-14T04:06:33;97053.41;;;15.99;64.66
21980;BME280;11154;48.558;9.234;2023-06-14T04:08:35;97054.03;;;16.01;64.26
21980;BME280;11154;48.558;9.234;2023-06-14T04:10:36;97065.78;;;16.06;63.14
21980;BME280;11154;48.558;9.234;2023-06-14T04:12:39;97069.28;;;16.13;63.50
21980;BME280;11154;48.558;9.234;2023-06-14T04:14:40;97082.50;;;16.15;63.07
21980;BME280;11154;48.558;9.234;2023-06-14T04:16:42;97070.75;;;16.16;62.69
21980;BME280;11154;48.558;9.234;2023-06-14T04:18:43;97083.13;;;16.10;62.57
21980;BME280;11154;48.558;9.234;2023-06-14T04:20:46;97085.38;;;16.13;62.17
21980;BME280;11154;48.558;9.234;2023-06-14T04:22:49;97088.69;;;16.15;63.04
21980;BME280;11154;48.558;9.234;2023-06-14T04:24:51;97083.31;;;16.22;61.16
21980;BME280;11154;48.558;9.234;2023-06-14T04:26:52;97087.25;;;16.26;60.28
21980;BME280;11154;48.558;9.234;2023-06-14T04:28:54;97092.81;;;16.24;60.26
21980;BME280;11154;48.558;9.234;2023-06-14T04:30:57;97090.56;;;16.28;63.82
21980;BME280;11154;48.558;9.234;2023-06-14T04:33:01;97098.00;;;16.26;64.78
21980;BME280;11154;48.558;9.234;2023-06-14T04:35:07;97093.06;;;16.29;61.67
21980;BME280;11154;48.558;9.234;2023-06-14T04:37:08;97092.63;;;16.32;60.46
21980;BME280;11154;48.558;9.234;2023-06-14T04:39:13;97085.63;;;16.38;59.28
21980;BME280;11154;48.558;9.234;2023-06-14T04:41:15;97088.94;;;16.33;59.43
21980;BME280;11154;48.558;9.234;2023-06-14T04:43:16;97093.50;;;16.33;60.45
21980;BME280;11154;48.558;9.234;2023-06-14T04:45:25;97095.34;;;16.39;60.44
21980;BME280;11154;48.558;9.234;2023-06-14T04:47:32;97089.31;;;16.43;59.67
21980;BME280;11154;48.558;9.234;2023-06-14T04:49:34;97096.38;;;16.38;61.19
21980;BME280;11154;48.558;9.234;2023-06-14T04:51:36;97106.06;;;16.39;62.44
21980;BME280;11154;48.558;9.234;2023-06-14T04:53:37;97102.97;;;16.42;61.13
21980;BME280;11154;48.558;9.234;2023-06-14T04:55:40;97107.50;;;16.48;60.99
21980;BME280;11154;48.558;9.234;2023-06-14T04:57:45;97102.13;;;16.48;61.05
21980;BME280;11154;48.558;9.234;2023-06-14T04:59:46;97105.84;;;16.53;63.30
21980;BME280;11154;48.558;9.234;2023-06-14T05:01:48;97107.91;;;16.51;63.90
21980;BME280;11154;48.558;9.234;2023-06-14T05:03:50;97111.00;;;16.55;63.91
21980;BME280;11154;48.558;9.234;2023-06-14T05:05:51;97107.50;;;16.48;65.37
21980;BME280;11154;48.558;9.234;2023-06-14T05:07:53;97113.28;;;16.45;65.65
21980;BME280;11154;48.558;9.234;2023-06-14T05:09:55;97115.38;;;16.49;66.27
21980;BME280;11154;48.558;9.234;2023-06-14T05:11:58;97115.16;;;16.51;66.48
21980;BME280;11154;48.558;9.234;2023-06-14T05:14:01;97105.41;;;16.56;66.40
21980;BME280;11154;48.558;9.234;2023-06-14T05:16:02;97108.31;;;16.61;66.07
21980;BME280;11154;48.558;9.234;2023-06-14T05:18:04;97112.84;;;16.61;66.67
21980;BME280;11154;48.558;9.234;2023-06-14T05:20:10;97115.34;;;16.62;66.72
21980;BME280;11154;48.558;9.234;2023-06-14T05:22:11;97110.59;;;16.58;66.86
21980;BME280;11154;48.558;9.234;2023-06-14T05:24:13;97111.22;;;16.53;67.60
21980;BME280;11154;48.558;9.234;2023-06-14T05:26:15;97115.13;;;16.44;68.72
21980;BME280;11154;48.558;9.234;2023-06-14T05:28:18;97126.50;;;16.46;67.75
21980;BME280;11154;48.558;9.234;2023-06-14T05:30:21;97120.91;;;16.48;68.31
21980;BME280;11154;48.558;9.234;2023-06-14T05:32:22;97123.19;;;16.51;69.44
21980;BME280;11154;48.558;9.234;2023-06-14T05:34:24;97122.75;;;16.54;67.04
21980;BME280;11154;48.558;9.234;2023-06-14T05:36:25;97126.91;;;16.63;67.97
21980;BME280;11154;48.558;9.234;2023-06-14T05:38:28;97135.75;;;16.63;68.82
21980;BME280;11154;48.558;9.234;2023-06-14T05:40:29;97122.75;;;16.66;67.41
21980;BME280;11154;48.558;9.234;2023-06-14T05:42:31;97124.59;;;16.72;65.66
21980;BME280;11154;48.558;9.234;2023-06-14T05:44:34;97132.44;;;16.80;65.94
21980;BME280;11154;48.558;9.234;2023-06-14T05:46:35;97123.53;;;16.86;68.47
21980;BME280;11154;48.558;9.234;2023-06-14T05:48:37;97124.81;;;16.90;68.33
21980;BME280;11154;48.558;9.234;2023-06-14T05:50:39;97134.69;;;16.96;65.54
21980;BME280;11154;48.558;9.234;2023-06-14T05:52:40;97128.88;;;16.99;64.67
21980;BME280;11154;48.558;9.234;2023-06-14T05:54:42;97129.28;;;17.03;64.69
21980;BME280;11154;48.558;9.234;2023-06-14T05:56:43;97129.88;;;17.11;65.42
21980;BME280;11154;48.558;9.234;2023-06-14T05:58:45;97129.88;;;17.18;63.08
21980;BME280;11154;48.558;9.234;2023-06-14T06:00:48;97124.47;;;17.24;66.07
21980;BME280;11154;48.558;9.234;2023-06-14T06:02:50;97126.34;;;17.30;66.63
21980;BME280;11154;48.558;9.234;2023-06-14T06:04:51;97130.06;;;17.36;65.94
21980;BME280;11154;48.558;9.234;2023-06-14T06:06:53;97132.50;;;17.37;65.43
21980;BME280;11154;48.558;9.234;2023-06-14T06:08:55;97134.16;;;17.44;64.74
21980;BME280;11154;48.558;9.234;2023-06-14T06:10:57;97134.75;;;17.53;66.33
21980;BME280;11154;48.558;9.234;2023-06-14T06:12:58;97132.84;;;17.60;67.62
21980;BME280;11154;48.558;9.234;2023-06-14T06:15:00;97132.84;;;17.60;64.65
21980;BME280;11154;48.558;9.234;2023-06-14T06:17:03;97131.13;;;17.72;64.78
21980;BME280;11154;48.558;9.234;2023-06-14T06:19:05;97131.47;;;17.82;65.17
21980;BME280;11154;48.558;9.234;2023-06-14T06:21:07;97137.88;;;17.87;62.94
21980;BME280;11154;48.558;9.234;2023-06-14T06:23:08;97137.41;;;17.97;64.04
21980;BME280;11154;48.558;9.234;2023-06-14T06:25:10;97136.06;;;18.06;63.45
21980;BME280;11154;48.558;9.234;2023-06-14T06:27:12;97127.53;;;18.15;61.94
21980;BME280;11154;48.558;9.234;2023-06-14T06:29:13;97133.13;;;18.13;59.18
21980;BME280;11154;48.558;9.234;2023-06-14T06:31:15;97135.59;;;18.21;59.40
21980;BME280;11154;48.558;9.234;2023-06-14T06:33:18;97133.63;;;18.35;60.03
21980;BME280;11154;48.558;9.234;2023-06-14T06:35:20;97136.44;;;18.46;62.72
21980;BME280;11154;48.558;9.234;2023-06-14T06:37:21;97134.78;;;18.45;59.98
21980;BME280;11154;48.558;9.234;2023-06-14T06:39:23;97144.84;;;18.56;61.77
21980;BME280;11154;48.558;9.234;2023-06-14T06:41:26;97138.75;;;18.67;55.78
21980;BME280;11154;48.558;9.234;2023-06-14T06:43:28;97146.22;;;18.89;58.51
21980;BME280;11154;48.558;9.234;2023-06-14T06:45:29;97147.78;;;18.97;55.12
21980;BME280;11154;48.558;9.234;2023-06-14T06:47:31;97151.09;;;18.99;53.37
21980;BME280;11154;48.558;9.234;2023-06-14T06:49:34;97160.13;;;19.11;52.42
21980;BME280;11154;48.558;9.234;2023-06-14T06:51:35;97147.44;;;19.11;50.47
21980;BME280;11154;48.558;9.234;2023-06-14T06:53:37;97141.88;;;19.13;50.19
21980;BME280;11154;48.558;9.234;2023-06-14T06:55:39;97143.19;;;19.22;50.25
21980;BME280;11154;48.558;9.234;2023-06-14T06:57:40;97153.09;;;19.28;49.86
21980;BME280;11154;48.558;9.234;2023-06-14T06:59:42;97151.59;;;19.32;50.30
21980;BME280;11154;48.558;9.234;2023-06-14T07:01:44;97146.34;;;19.37;49.67
21980;BME280;11154;48.558;9.234;2023-06-14T07:03:45;97155.41;;;19.42;49.97
21980;BME280;11154;48.558;9.234;2023-06-14T07:05:48;97147.47;;;19.47;48.90
21980;BME280;11154;48.558;9.234;2023-06-14T07:07:50;97155.47;;;19.54;49.02
21980;BME280;11154;48.558;9.234;2023-06-14T07:09:51;97149.03;;;19.55;47.59
21980;BME280;11154;48.558;9.234;2023-06-14T07:11:53;97149.03;;;19.55;47.62
21980;BME280;11154;48.558;9.234;2023-06-14T07:13:54;97159.16;;;19.59;47.65
21980;BME280;11154;48.558;9.234;2023-06-14T07:15:58;97160.03;;;19.71;47.61
21980;BME280;11154;48.558;9.234;2023-06-14T07:18:00;97164.91;;;19.80;47.89
21980;BME280;11154;48.558;9.234;2023-06-14T07:20:02;97162.25;;;19.92;48.00
21980;BME280;11154;48.558;9.234;2023-06-14T07:22:09;97167.22;;;19.95;47.78
21980;BME280;11154;48.558;9.234;2023-06-14T07:24:11;97169.38;;;20.04;49.17
21980;BME280;11154;48.558;9.234;2023-06-14T07:26:13;97165.69;;;20.17;48.96
21980;BME280;11154;48.558;9.234;2023-06-14T07:28:15;97171.44;;;20.20;47.53
21980;BME280;11154;48.558;9.234;2023-06-14T07:30:17;97171.66;;;20.19;47.74
21980;BME280;11154;48.558;9.234;2023-06-14T07:32:19;97168.59;;;20.15;48.65
21980;BME280;11154;48.558;9.234;2023-06-14T07:34:21;97172.13;;;20.16;48.15
21980;BME280;11154;48.558;9.234;2023-06-14T07:36:23;97169.88;;;20.13;47.27
21980;BME280;11154;48.558;9.234;2023-06-14T07:38:26;97173.19;;;20.15;48.09
21980;BME280;11154;48.558;9.234;2023-06-14T07:40:27;97188.69;;;20.19;47.63
21980;BME280;11154;48.558;9.234;2023-06-14T07:42:29;97181.78;;;20.23;47.65
21980;BME280;11154;48.558;9.234;2023-06-14T07:44:31;97185.88;;;20.26;47.36
21980;BME280;11154;48.558;9.234;2023-06-14T07:46:32;97183.56;;;20.29;46.85
21980;BME280;11154;48.558;9.234;2023-06-14T07:48:34;97183.00;;;20.38;47.11
21980;BME280;11154;48.558;9.234;2023-06-14T07:50:36;97188.31;;;20.45;47.33
21980;BME280;11154;48.558;9.234;2023-06-14T07:52:38;97183.84;;;20.50;46.70
21980;BME280;11154;48.558;9.234;2023-06-14T07:54:41;97181.19;;;20.62;48.20
21980;BME280;11154;48.558;9.234;2023-06-14T07:56:42;97185.78;;;20.73;47.64
21980;BME280;11154;48.558;9.234;2023-06-14T07:58:44;97185.22;;;20.82;46.44
21980;BME280;11154;48.558;9.234;2023-06-14T08:00:45;97176.66;;;20.85;45.89
21980;BME280;11154;48.558;9.234;2023-06-14T08:02:47;97183.38;;;20.94;46.10
21980;BME280;11154;48.558;9.234;2023-06-14T08:04:49;97181.03;;;20.98;45.87
21980;BME280;11154;48.558;9.234;2023-06-14T08:06:50;97181.16;;;21.03;46.51
21980;BME280;11154;48.558;9.234;2023-06-14T08:08:52;97188.91;;;20.99;44.98
21980;BME280;11154;48.558;9.234;2023-06-14T08:10:55;97179.38;;;20.97;45.27
21980;BME280;11154;48.558;9.234;2023-06-14T08:12:57;97187.63;;;21.02;45.22
21980;BME280;11154;48.558;9.234;2023-06-14T08:14:59;97185.88;;;21.07;44.22
21980;BME280;11154;48.558;9.234;2023-06-14T08:17:01;97175.50;;;21.15;44.41
21980;BME280;11154;48.558;9.234;2023-06-14T08:19:02;97186.44;;;21.20;43.91
21980;BME280;11154;48.558;9.234;2023-06-14T08:21:04;97181.63;;;21.22;44.30
21980;BME280;11154;48.558;9.234;2023-06-14T08:23:06;97188.31;;;21.31;43.04
21980;BME280;11154;48.558;9.234;2023-06-14T08:25:09;97180.31;;;21.36;41.79
21980;BME280;11154;48.558;9.234;2023-06-14T08:27:12;97181.25;;;21.42;41.84
21980;BME280;11154;48.558;9.234;2023-06-14T08:29:14;97189.72;;;21.45;41.92
21980;BME280;11154;48.558;9.234;2023-06-14T08:31:16;97186.75;;;21.47;40.43
21980;BME280;11154;48.558;9.234;2023-06-14T08:33:18;97182.28;;;21.52;40.53
21980;BME280;11154;48.558;9.234;2023-06-14T08:35:19;97181.47;;;21.63;40.63
21980;BME280;11154;48.558;9.234;2023-06-14T08:37:21;97196.31;;;21.72;40.98
21980;BME280;11154;48.558;9.234;2023-06-14T08:39:22;97189.09;;;21.77;40.80
21980;BME280;11154;48.558;9.234;2023-06-14T08:41:24;97183.66;;;21.77;40.15
21980;BME280;11154;48.558;9.234;2023-06-14T08:43:27;97186.00;;;21.85;40.17
21980;BME280;11154;48.558;9.234;2023-06-14T08:45:29;97198.97;;;21.83;40.46
21980;BME280;11154;48.558;9.234;2023-06-14T08:47:31;97189.06;;;21.89;41.39
21980;BME280;11154;48.558;9.234;2023-06-14T08:49:37;97190.34;;;21.98;41.24
21980;BME280;11154;48.558;9.234;2023-06-14T08:51:39;97185.63;;;22.05;41.29
21980;BME280;11154;48.558;9.234;2023-06-14T08:53:42;97181.34;;;22.09;40.62
21980;BME280;11154;48.558;9.234;2023-06-14T08:55:44;97190.06;;;22.11;40.26
21980;BME280;11154;48.558;9.234;2023-06-14T08:57:48;97193.47;;;22.18;41.02
21980;BME280;11154;48.558;9.234;2023-06-14T08:59:52;97188.84;;;22.30;41.22
21980;BME280;11154;48.558;9.234;2023-06-14T09:01:55;97190.84;;;22.34;40.88
21980;BME280;11154;48.558;9.234;2023-06-14T09:03:57;97193.97;;;22.43;41.07
21980;BME280;11154;48.558;9.234;2023-06-14T09:05:59;97181.47;;;22.42;40.50
21980;BME280;11154;48.558;9.234;2023-06-14T09:08:01;97184.28;;;22.47;41.39
21980;BME280;11154;48.558;9.234;2023-06-14T09:10:08;97184.53;;;22.45;41.01
21980;BME280;11154;48.558;9.234;2023-06-14T09:12:11;97191.34;;;22.48;40.92
21980;BME280;11154;48.558;9.234;2023-06-14T09:14:13;97184.28;;;22.47;41.33
21980;BME280;11154;48.558;9.234;2023-06-14T09:16:16;97187.41;;;22.55;41.08
21980;BME280;11154;48.558;9.234;2023-06-14T09:18:18;97186.09;;;22.57;40.57
21980;BME280;11154;48.558;9.234;2023-06-14T09:20:23;97172.31;;;22.59;40.62
21980;BME280;11154;48.558;9.234;2023-06-14T09:22:29;97184.13;;;22.69;40.26
21980;BME280;11154;48.558;9.234;2023-06-14T09:24:31;97181.03;;;22.77;40.38
21980;BME280;11154;48.558;9.234;2023-06-14T09:26:33;97188.16;;;22.83;40.28
21980;BME280;11154;48.558;9.234;2023-06-14T09:28:41;97190.31;;;22.81;40.67
21980;BME280;11154;48.558;9.234;2023-06-14T09:30:44;97189.75;;;22.79;40.67
21980;BME280;11154;48.558;9.234;2023-06-14T09:32:47;97180.53;;;22.80;41.49
21980;BME280;11154;48.558;9.234;2023-06-14T09:34:49;97184.97;;;22.86;38.77
21980;BME280;11154;48.558;9.234;2023-06-14T09:36:50;97184.47;;;22.89;39.71
21980;BME280;11154;48.558;9.234;2023-06-14T09:38:53;97186.13;;;22.90;38.90
21980;BME280;11154;48.558;9.234;2023-06-14T09:40:56;97191.41;;;22.97;39.86
21980;BME280;11154;48.558;9.234;2023-06-14T09:42:58;97186.88;;;23.02;39.42
21980;BME280;11154;48.558;9.234;2023-06-14T09:45:00;97189.72;;;23.07;39.41
21980;BME280;11154;48.558;9.234;2023-06-14T09:47:02;97188.94;;;23.12;36.80
21980;BME280;11154;48.558;9.234;2023-06-14T09:49:06;97196.28;;;23.11;35.93
21980;BME280;11154;48.558;9.234;2023-06-14T09:51:09;97197.66;;;23.14;36.38
21980;BME280;11154;48.558;9.234;2023-06-14T09:53:11;97201.13;;;23.09;36.73
21980;BME280;11154;48.558;9.234;2023-06-14T09:55:14;97190.91;;;23.16;36.83
21980;BME280;11154;48.558;9.234;2023-06-14T09:57:21;97188.72;;;23.13;34.90
21980;BME280;11154;48.558;9.234;2023-06-14T09:59:26;97191.50;;;23.18;35.42
21980;BME280;11154;48.558;9.234;2023-06-14T10:01:33;97181.84;;;23.27;35.29
21980;BME280;11154;48.558;9.234;2023-06-14T10:03:35;97184.66;;;23.32;34.59
21980;BME280;11154;48.558;9.234;2023-06-14T10:05:43;97184.72;;;23.37;34.47
21980;BME280;11154;48.558;9.234;2023-06-14T10:07:50;97181.09;;;23.48;36.17
21980;BME280;11154;48.558;9.234;2023-06-14T10:09:53;97169.81;;;23.56;34.78
21980;BME280;11154;48.558;9.234;2023-06-14T10:11:55;97175.81;;;23.58;35.30
21980;BME280;11154;48.558;9.234;2023-06-14T10:13:58;97176.13;;;23.61;35.99
21980;BME280;11154;48.558;9.234;2023-06-14T10:16:05;97177.44;;;23.59;34.81
21980;BME280;11154;48.558;9.234;2023-06-14T10:18:16;97172.84;;;23.59;35.00
21980;BME280;11154;48.558;9.234;2023-06-14T10:20:27;97177.25;;;23.65;34.12
21980;BME280;11154;48.558;9.234;2023-06-14T10:22:35;97171.44;;;23.57;34.07
21980;BME280;11154;48.558;9.234;2023-06-14T10:24:40;97176.94;;;23.62;34.96
21980;BME280;11154;48.558;9.234;2023-06-14T10:26:50;97171.56;;;23.67;35.13
21980;BME280;11154;48.558;9.234;2023-06-14T10:28:59;97172.25;;;23.74;34.89
21980;BME280;11154;48.558;9.234;2023-06-14T10:31:06;97177.00;;;23.67;34.68
21980;BME280;11154;48.558;9.234;2023-06-14T10:33:08;97175.34;;;23.66;34.75
21980;BME280;11154;48.558;9.234;2023-06-14T10:35:16;97167.78;;;23.68;33.50
21980;BME280;11154;48.558;9.234;2023-06-14T10:37:17;97169.44;;;23.69;34.83
21980;BME280;11154;48.558;9.234;2023-06-14T10:39:21;97172.25;;;23.74;33.82
21980;BME280;11154;48.558;9.234;2023-06-14T10:41:23;97175.66;;;23.69;33.57
21980;BME280;11154;48.558;9.234;2023-06-14T10:43:25;97182.44;;;23.67;33.36
21980;BME280;11154;48.558;9.234;2023-06-14T10:45:27;97177.53;;;23.64;32.91
21980;BME280;11154;48.558;9.234;2023-06-14T10:47:29;97178.06;;;23.66;32.97
21980;BME280;11154;48.558;9.234;2023-06-14T10:49:40;97179.22;;;23.70;33.21